sensor_id;sensor_type;location;lat;lon;timestamp;P1;durP1;ratioP1;P2;durP2;ratioP2
13687;SDS011;6916;51.504;7.416;2022-10-12T00:00:48;10.67;;;4.43;;
13687;SDS011;6916;51.504;7.416;2022-10-12T00:06:17;13.33;;;4.83;;
13687;SDS011;6916;51.504;7.416;2022-10-12T00:11:41;11.13;;;4.50;;
13687;SDS011;6916;51.504;7.416;2022-10-12T00:17:04;6.53;;;3.87;;
13687;SDS011;6916;51.504;7.416;2022-10-12T00:22:26;9.83;;;4.37;;
13687;SDS011;6916;51.504;7.416;2022-10-12T00:27:48;11.97;;;4.60;;
13687;SDS011;6916;51.504;7.416;2022-10-12T00:33:10;8.63;;;4.03;;
13687;SDS011;6916;51.504;7.416;2022-10-12T00:38:32;9.13;;;4.20;;
13687;SDS011;6916;51.504;7.416;2022-10-12T00:43:55;10.37;;;4.20;;
13687;SDS011;6916;51.504;7.416;2022-10-12T00:49:18;7.33;;;3.57;;
13687;SDS011;6916;51.504;7.416;2022-10-12T00:54:44;8.83;;;3.90;;
13687;SDS011;6916;51.504;7.416;2022-10-12T01:00:08;6.43;;;2.90;;
13687;SDS011;6916;51.504;7.416;2022-10-12T01:05:31;7.17;;;3.53;;
13687;SDS011;6916;51.504;7.416;2022-10-12T01:10:53;8.27;;;3.47;;
13687;SDS011;6916;51.504;7.416;2022-10-12T01:22:01;8.27;;;3.90;;
13687;SDS011;6916;51.504;7.416;2022-10-12T01:33:04;8.03;;;3.67;;
13687;SDS011;6916;51.504;7.416;2022-10-12T01:44:05;7.43;;;3.60;;
13687;SDS011;6916;51.504;7.416;2022-10-12T01:49:27;8.53;;;3.77;;
13687;SDS011;6916;51.504;7.416;2022-10-12T02:00:46;7.20;;;3.53;;
13687;SDS011;6916;51.504;7.416;2022-10-12T02:06:15;4.63;;;3.43;;
13687;SDS011;6916;51.504;7.416;2022-10-12T02:11:39;6.73;;;3.70;;
13687;SDS011;6916;51.504;7.416;2022-10-12T02:17:03;7.27;;;3.53;;
13687;SDS011;6916;51.504;7.416;2022-10-12T02:22:36;8.67;;;3.60;;
13687;SDS011;6916;51.504;7.416;2022-10-12T02:28:04;6.63;;;3.57;;
13687;SDS011;6916;51.504;7.416;2022-10-12T02:34:11;7.77;;;3.53;;
13687;SDS011;6916;51.504;7.416;2022-10-12T02:39:18;5.87;;;3.50;;
13687;SDS011;6916;51.504;7.416;2022-10-12T02:44:42;13.37;;;4.80;;
13687;SDS011;6916;51.504;7.416;2022-10-12T02:50:05;7.60;;;3.43;;
13687;SDS011;6916;51.504;7.416;2022-10-12T02:55:29;5.37;;;3.50;;
13687;SDS011;6916;51.504;7.416;2022-10-12T03:00:51;5.23;;;3.50;;
13687;SDS011;6916;51.504;7.416;2022-10-12T03:06:13;6.30;;;3.63;;
13687;SDS011;6916;51.504;7.416;2022-10-12T03:11:36;7.53;;;3.80;;
13687;SDS011;6916;51.504;7.416;2022-10-12T03:16:58;7.10;;;4.10;;
13687;SDS011;6916;51.504;7.416;2022-10-12T03:22:20;7.77;;;3.43;;
13687;SDS011;6916;51.504;7.416;2022-10-12T03:27:42;7.67;;;3.53;;
13687;SDS011;6916;51.504;7.416;2022-10-12T03:33:04;6.83;;;3.67;;
13687;SDS011;6916;51.504;7.416;2022-10-12T03:38:26;6.57;;;3.40;;
13687;SDS011;6916;51.504;7.416;2022-10-12T03:43:49;7.10;;;4.07;;
13687;SDS011;6916;51.504;7.416;2022-10-12T03:49:11;9.13;;;3.50;;
13687;SDS011;6916;51.504;7.416;2022-10-12T03:54:33;7.93;;;3.40;;
13687;SDS011;6916;51.504;7.416;2022-10-12T03:59:55;7.07;;;3.73;;
13687;SDS011;6916;51.504;7.416;2022-10-12T04:05:17;9.93;;;3.90;;
13687;SDS011;6916;51.504;7.416;2022-10-12T04:10:39;6.07;;;3.90;;
13687;SDS011;6916;51.504;7.416;2022-10-12T04:16:02;8.07;;;4.17;;
13687;SDS011;6916;51.504;7.416;2022-10-12T04:21:27;11.47;;;4.00;;
13687;SDS011;6916;51.504;7.416;2022-10-12T04:26:51;8.23;;;4.17;;
13687;SDS011;6916;51.504;7.416;2022-10-12T04:32:14;6.83;;;3.60;;
13687;SDS011;6916;51.504;7.416;2022-10-12T04:37:36;5.47;;;3.87;;
13687;SDS011;6916;51.504;7.416;2022-10-12T04:42:58;7.00;;;3.80;;
13687;SDS011;6916;51.504;7.416;2022-10-12T04:48:20;7.00;;;3.83;;
13687;SDS011;6916;51.504;7.416;2022-10-12T04:53:43;7.87;;;3.87;;
13687;SDS011;6916;51.504;7.416;2022-10-12T04:59:05;8.07;;;3.80;;
13687;SDS011;6916;51.504;7.416;2022-10-12T05:04:27;6.97;;;4.00;;
13687;SDS011;6916;51.504;7.416;2022-10-12T05:09:33;5.40;;;3.70;;
13687;SDS011;6916;51.504;7.416;2022-10-12T05:14:55;10.73;;;4.00;;
13687;SDS011;6916;51.504;7.416;2022-10-12T05:20:18;6.87;;;3.97;;
13687;SDS011;6916;51.504;7.416;2022-10-12T05:25:40;6.17;;;4.23;;
13687;SDS011;6916;51.504;7.416;2022-10-12T05:31:02;6.97;;;3.83;;
13687;SDS011;6916;51.504;7.416;2022-10-12T05:36:24;7.87;;;4.40;;
13687;SDS011;6916;51.504;7.416;2022-10-12T05:41:47;8.30;;;4.17;;
13687;SDS011;6916;51.504;7.416;2022-10-12T05:47:10;9.33;;;3.80;;
13687;SDS011;6916;51.504;7.416;2022-10-12T05:52:32;7.63;;;4.20;;
13687;SDS011;6916;51.504;7.416;2022-10-12T05:57:54;9.07;;;4.07;;
13687;SDS011;6916;51.504;7.416;2022-10-12T06:03:16;9.33;;;4.57;;
13687;SDS011;6916;51.504;7.416;2022-10-12T06:08:38;7.77;;;3.80;;
13687;SDS011;6916;51.504;7.416;2022-10-12T06:14:00;9.20;;;3.77;;
13687;SDS011;6916;51.504;7.416;2022-10-12T06:19:22;9.60;;;4.13;;
13687;SDS011;6916;51.504;7.416;2022-10-12T06:24:44;8.67;;;3.83;;
13687;SDS011;6916;51.504;7.416;2022-10-12T06:30:06;6.67;;;3.90;;
13687;SDS011;6916;51.504;7.416;2022-10-12T06:35:28;5.70;;;3.80;;
13687;SDS011;6916;51.504;7.416;2022-10-12T06:40:50;8.50;;;4.27;;
13687;SDS011;6916;51.504;7.416;2022-10-12T06:46:14;8.30;;;4.30;;
13687;SDS011;6916;51.504;7.416;2022-10-12T06:51:36;9.47;;;4.57;;
13687;SDS011;6916;51.504;7.416;2022-10-12T06:56:58;9.30;;;4.93;;
13687;SDS011;6916;51.504;7.416;2022-10-12T07:02:20;10.50;;;5.63;;
13687;SDS011;6916;51.504;7.416;2022-10-12T07:07:43;10.73;;;5.90;;
13687;SDS011;6916;51.504;7.416;2022-10-12T07:13:05;11.67;;;5.30;;
13687;SDS011;6916;51.504;7.416;2022-10-12T07:18:27;15.00;;;5.73;;
13687;SDS011;6916;51.504;7.416;2022-10-12T07:23:49;11.43;;;5.43;;
13687;SDS011;6916;51.504;7.416;2022-10-12T07:29:11;11.27;;;5.17;;
13687;SDS011;6916;51.504;7.416;2022-10-12T07:34:33;7.60;;;4.07;;
13687;SDS011;6916;51.504;7.416;2022-10-12T07:39:55;11.83;;;3.90;;
13687;SDS011;6916;51.504;7.416;2022-10-12T07:45:18;8.00;;;3.63;;
13687;SDS011;6916;51.504;7.416;2022-10-12T07:50:40;6.03;;;2.93;;
13687;SDS011;6916;51.504;7.416;2022-10-12T07:56:03;12.43;;;3.47;;
13687;SDS011;6916;51.504;7.416;2022-10-12T08:01:27;9.27;;;3.90;;
13687;SDS011;6916;51.504;7.416;2022-10-12T08:06:52;9.50;;;2.93;;
13687;SDS011;6916;51.504;7.416;2022-10-12T08:12:15;6.10;;;3.53;;
13687;SDS011;6916;51.504;7.416;2022-10-12T08:17:37;10.67;;;3.63;;
13687;SDS011;6916;51.504;7.416;2022-10-12T08:22:59;5.63;;;3.40;;
13687;SDS011;6916;51.504;7.416;2022-10-12T08:28:21;7.67;;;3.43;;
13687;SDS011;6916;51.504;7.416;2022-10-12T08:33:44;7.63;;;3.37;;
13687;SDS011;6916;51.504;7.416;2022-10-12T08:39:06;7.03;;;2.83;;
13687;SDS011;6916;51.504;7.416;2022-10-12T08:49:51;7.27;;;1.87;;
13687;SDS011;6916;51.504;7.416;2022-10-12T08:55:16;6.33;;;2.10;;
13687;SDS011;6916;51.504;7.416;2022-10-12T09:00:43;4.00;;;2.23;;
13687;SDS011;6916;51.504;7.416;2022-10-12T09:06:17;4.07;;;2.07;;
13687;SDS011;6916;51.504;7.416;2022-10-12T09:11:48;4.03;;;1.90;;
13687;SDS011;6916;51.504;7.416;2022-10-12T09:17:24;7.43;;;2.43;;
13687;SDS011;6916;51.504;7.416;2022-10-12T09:22:49;11.60;;;2.43;;
13687;SDS011;6916;51.504;7.416;2022-10-12T09:28:14;7.87;;;2.70;;
13687;SDS011;6916;51.504;7.416;2022-10-12T09:33:42;9.03;;;2.23;;
13687;SDS011;6916;51.504;7.416;2022-10-12T09:39:11;6.37;;;2.57;;
13687;SDS011;6916;51.504;7.416;2022-10-12T09:45:18;9.73;;;3.30;;
13687;SDS011;6916;51.504;7.416;2022-10-12T09:50:36;7.67;;;2.63;;
13687;SDS011;6916;51.504;7.416;2022-10-12T09:56:06;9.13;;;2.90;;
13687;SDS011;6916;51.504;7.416;2022-10-12T10:01:33;7.40;;;2.70;;
13687;SDS011;6916;51.504;7.416;2022-10-12T10:07:10;8.67;;;2.73;;
13687;SDS011;6916;51.504;7.416;2022-10-12T10:18:38;7.77;;;2.03;;
13687;SDS011;6916;51.504;7.416;2022-10-12T10:24:04;7.97;;;2.50;;
13687;SDS011;6916;51.504;7.416;2022-10-12T10:35:04;4.87;;;2.10;;
13687;SDS011;6916;51.504;7.416;2022-10-12T10:40:32;10.57;;;2.00;;
13687;SDS011;6916;51.504;7.416;2022-10-12T10:45:55;6.43;;;2.07;;
13687;SDS011;6916;51.504;7.416;2022-10-12T10:51:19;6.47;;;1.77;;
13687;SDS011;6916;51.504;7.416;2022-10-12T10:56:42;5.03;;;1.67;;
13687;SDS011;6916;51.504;7.416;2022-10-12T11:07:56;5.67;;;1.73;;
13687;SDS011;6916;51.504;7.416;2022-10-12T11:13:20;5.70;;;1.93;;
13687;SDS011;6916;51.504;7.416;2022-10-12T11:19:32;10.73;;;2.37;;
13687;SDS011;6916;51.504;7.416;2022-10-12T11:24:53;4.67;;;1.60;;
13687;SDS011;6916;51.504;7.416;2022-10-12T11:30:25;10.70;;;1.80;;
13687;SDS011;6916;51.504;7.416;2022-10-12T11:35:58;4.53;;;1.60;;
13687;SDS011;6916;51.504;7.416;2022-10-12T11:41:28;6.37;;;1.67;;
13687;SDS011;6916;51.504;7.416;2022-10-12T11:52:18;7.83;;;1.20;;
13687;SDS011;6916;51.504;7.416;2022-10-12T11:57:40;2.70;;;0.87;;
13687;SDS011;6916;51.504;7.416;2022-10-12T12:19:53;3.30;;;1.35;;
13687;SDS011;6916;51.504;7.416;2022-10-12T12:25:30;6.70;;;1.00;;
13687;SDS011;6916;51.504;7.416;2022-10-12T12:30:59;5.27;;;1.30;;
13687;SDS011;6916;51.504;7.416;2022-10-12T12:36:31;5.07;;;1.23;;
13687;SDS011;6916;51.504;7.416;2022-10-12T12:41:57;3.70;;;1.17;;
13687;SDS011;6916;51.504;7.416;2022-10-12T12:47:35;5.75;;;1.35;;
13687;SDS011;6916;51.504;7.416;2022-10-12T12:53:13;4.90;;;1.80;;
13687;SDS011;6916;51.504;7.416;2022-10-12T13:16:05;8.00;;;2.88;;
13687;SDS011;6916;51.504;7.416;2022-10-12T13:21:36;4.77;;;2.40;;
13687;SDS011;6916;51.504;7.416;2022-10-12T13:27:08;8.18;;;2.95;;
13687;SDS011;6916;51.504;7.416;2022-10-12T13:54:48;7.57;;;2.67;;
13687;SDS011;6916;51.504;7.416;2022-10-12T14:00:17;8.40;;;3.15;;
13687;SDS011;6916;51.504;7.416;2022-10-12T14:05:42;8.40;;;2.23;;
13687;SDS011;6916;51.504;7.416;2022-10-12T14:11:05;6.63;;;2.43;;
13687;SDS011;6916;51.504;7.416;2022-10-12T14:16:27;6.87;;;2.40;;
13687;SDS011;6916;51.504;7.416;2022-10-12T14:21:49;7.97;;;1.80;;
13687;SDS011;6916;51.504;7.416;2022-10-12T14:27:23;7.47;;;2.27;;
13687;SDS011;6916;51.504;7.416;2022-10-12T14:32:46;5.67;;;2.27;;
13687;SDS011;6916;51.504;7.416;2022-10-12T14:38:33;7.83;;;1.93;;
13687;SDS011;6916;51.504;7.416;2022-10-12T14:49:40;9.00;;;2.13;;
13687;SDS011;6916;51.504;7.416;2022-10-12T14:55:05;3.83;;;2.20;;
13687;SDS011;6916;51.504;7.416;2022-10-12T15:00:31;6.60;;;2.70;;
13687;SDS011;6916;51.504;7.416;2022-10-12T15:05:53;8.98;;;2.88;;
13687;SDS011;6916;51.504;7.416;2022-10-12T15:11:17;7.97;;;2.28;;
13687;SDS011;6916;51.504;7.416;2022-10-12T15:16:39;7.15;;;2.33;;
13687;SDS011;6916;51.504;7.416;2022-10-12T15:22:01;3.23;;;2.10;;
13687;SDS011;6916;51.504;7.416;2022-10-12T15:27:23;8.60;;;2.10;;
13687;SDS011;6916;51.504;7.416;2022-10-12T15:32:46;7.03;;;2.53;;
13687;SDS011;6916;51.504;7.416;2022-10-12T15:38:08;14.00;;;2.87;;
13687;SDS011;6916;51.504;7.416;2022-10-12T15:43:30;5.43;;;2.20;;
13687;SDS011;6916;51.504;7.416;2022-10-12T15:48:53;5.20;;;2.43;;
13687;SDS011;6916;51.504;7.416;2022-10-12T15:54:15;7.68;;;2.53;;
13687;SDS011;6916;51.504;7.416;2022-10-12T15:59:37;4.60;;;2.40;;
13687;SDS011;6916;51.504;7.416;2022-10-12T16:04:59;14.10;;;6.63;;
13687;SDS011;6916;51.504;7.416;2022-10-12T16:10:23;7.78;;;3.42;;
13687;SDS011;6916;51.504;7.416;2022-10-12T16:15:48;8.03;;;2.80;;
13687;SDS011;6916;51.504;7.416;2022-10-12T16:21:10;6.00;;;2.70;;
13687;SDS011;6916;51.504;7.416;2022-10-12T16:26:32;8.97;;;3.73;;
13687;SDS011;6916;51.504;7.416;2022-10-12T16:31:55;10.20;;;3.63;;
13687;SDS011;6916;51.504;7.416;2022-10-12T16:37:17;6.95;;;4.32;;
13687;SDS011;6916;51.504;7.416;2022-10-12T16:42:39;10.48;;;4.85;;
13687;SDS011;6916;51.504;7.416;2022-10-12T16:48:01;16.17;;;6.23;;
13687;SDS011;6916;51.504;7.416;2022-10-12T16:53:24;10.17;;;6.00;;
13687;SDS011;6916;51.504;7.416;2022-10-12T16:58:46;7.68;;;4.60;;
13687;SDS011;6916;51.504;7.416;2022-10-12T17:04:09;14.83;;;6.20;;
13687;SDS011;6916;51.504;7.416;2022-10-12T17:09:31;13.43;;;6.10;;
13687;SDS011;6916;51.504;7.416;2022-10-12T17:14:54;8.57;;;5.40;;
13687;SDS011;6916;51.504;7.416;2022-10-12T17:20:16;10.30;;;5.57;;
13687;SDS011;6916;51.504;7.416;2022-10-12T17:25:38;8.30;;;4.73;;
13687;SDS011;6916;51.504;7.416;2022-10-12T17:31:04;13.57;;;6.67;;
13687;SDS011;6916;51.504;7.416;2022-10-12T17:36:26;10.33;;;7.43;;
13687;SDS011;6916;51.504;7.416;2022-10-12T17:41:49;9.97;;;7.07;;
13687;SDS011;6916;51.504;7.416;2022-10-12T17:47:11;12.33;;;8.20;;
13687;SDS011;6916;51.504;7.416;2022-10-12T17:52:35;10.83;;;7.77;;
13687;SDS011;6916;51.504;7.416;2022-10-12T17:57:58;13.47;;;8.63;;
13687;SDS011;6916;51.504;7.416;2022-10-12T18:03:21;18.13;;;10.00;;
13687;SDS011;6916;51.504;7.416;2022-10-12T18:08:46;13.23;;;7.63;;
13687;SDS011;6916;51.504;7.416;2022-10-12T18:14:09;12.50;;;8.30;;
13687;SDS011;6916;51.504;7.416;2022-10-12T18:19:31;14.40;;;9.30;;
13687;SDS011;6916;51.504;7.416;2022-10-12T18:24:53;13.53;;;8.27;;
13687;SDS011;6916;51.504;7.416;2022-10-12T18:30:15;13.40;;;7.77;;
13687;SDS011;6916;51.504;7.416;2022-10-12T18:35:37;10.00;;;6.00;;
13687;SDS011;6916;51.504;7.416;2022-10-12T18:41:13;10.43;;;6.03;;
13687;SDS011;6916;51.504;7.416;2022-10-12T18:46:37;9.67;;;7.17;;
13687;SDS011;6916;51.504;7.416;2022-10-12T18:51:59;12.63;;;7.20;;
13687;SDS011;6916;51.504;7.416;2022-10-12T18:57:21;11.87;;;6.77;;
13687;SDS011;6916;51.504;7.416;2022-10-12T19:02:44;12.10;;;7.50;;
13687;SDS011;6916;51.504;7.416;2022-10-12T19:08:06;13.67;;;9.10;;
13687;SDS011;6916;51.504;7.416;2022-10-12T19:13:28;12.40;;;8.23;;
13687;SDS011;6916;51.504;7.416;2022-10-12T19:18:57;15.00;;;9.70;;
13687;SDS011;6916;51.504;7.416;2022-10-12T19:24:21;19.07;;;11.10;;
13687;SDS011;6916;51.504;7.416;2022-10-12T19:29:43;17.77;;;8.87;;
13687;SDS011;6916;51.504;7.416;2022-10-12T19:35:05;14.47;;;8.57;;
13687;SDS011;6916;51.504;7.416;2022-10-12T19:40:28;8.53;;;7.33;;
13687;SDS011;6916;51.504;7.416;2022-10-12T19:45:50;11.87;;;7.97;;
13687;SDS011;6916;51.504;7.416;2022-10-12T19:51:12;14.67;;;8.73;;
13687;SDS011;6916;51.504;7.416;2022-10-12T19:56:35;14.67;;;9.03;;
13687;SDS011;6916;51.504;7.416;2022-10-12T20:01:57;13.53;;;9.00;;
13687;SDS011;6916;51.504;7.416;2022-10-12T20:07:19;10.93;;;9.23;;
13687;SDS011;6916;51.504;7.416;2022-10-12T20:12:42;13.87;;;9.00;;
13687;SDS011;6916;51.504;7.416;2022-10-12T20:18:04;13.43;;;9.13;;
13687;SDS011;6916;51.504;7.416;2022-10-12T20:23:26;17.13;;;11.50;;
13687;SDS011;6916;51.504;7.416;2022-10-12T20:28:49;17.87;;;12.30;;
13687;SDS011;6916;51.504;7.416;2022-10-12T20:34:11;13.83;;;8.67;;
13687;SDS011;6916;51.504;7.416;2022-10-12T20:39:33;13.80;;;9.50;;
13687;SDS011;6916;51.504;7.416;2022-10-12T20:44:55;20.93;;;13.73;;
13687;SDS011;6916;51.504;7.416;2022-10-12T20:50:18;20.77;;;14.87;;
13687;SDS011;6916;51.504;7.416;2022-10-12T20:55:40;17.63;;;11.17;;
13687;SDS011;6916;51.504;7.416;2022-10-12T21:01:06;15.20;;;11.13;;
13687;SDS011;6916;51.504;7.416;2022-10-12T21:06:29;21.83;;;11.20;;
13687;SDS011;6916;51.504;7.416;2022-10-12T21:11:53;17.30;;;12.13;;
13687;SDS011;6916;51.504;7.416;2022-10-12T21:17:15;18.10;;;10.40;;
13687;SDS011;6916;51.504;7.416;2022-10-12T21:22:37;17.73;;;10.03;;
13687;SDS011;6916;51.504;7.416;2022-10-12T21:27:59;14.53;;;9.63;;
13687;SDS011;6916;51.504;7.416;2022-10-12T21:33:21;16.37;;;8.80;;
13687;SDS011;6916;51.504;7.416;2022-10-12T21:38:44;14.67;;;8.23;;
13687;SDS011;6916;51.504;7.416;2022-10-12T21:44:06;14.17;;;8.50;;
13687;SDS011;6916;51.504;7.416;2022-10-12T21:49:28;14.37;;;7.57;;
13687;SDS011;6916;51.504;7.416;2022-10-12T21:54:50;13.27;;;8.50;;
13687;SDS011;6916;51.504;7.416;2022-10-12T22:00:12;14.03;;;8.53;;
13687;SDS011;6916;51.504;7.416;2022-10-12T22:05:38;16.60;;;8.77;;
13687;SDS011;6916;51.504;7.416;2022-10-12T22:11:05;15.20;;;8.30;;
13687;SDS011;6916;51.504;7.416;2022-10-12T22:16:28;14.63;;;8.90;;
13687;SDS011;6916;51.504;7.416;2022-10-12T22:21:51;14.50;;;9.03;;
13687;SDS011;6916;51.504;7.416;2022-10-12T22:27:13;14.43;;;9.03;;
13687;SDS011;6916;51.504;7.416;2022-10-12T22:32:35;11.17;;;8.33;;
13687;SDS011;6916;51.504;7.416;2022-10-12T22:37:58;13.03;;;8.43;;
13687;SDS011;6916;51.504;7.416;2022-10-12T22:43:20;12.17;;;8.37;;
13687;SDS011;6916;51.504;7.416;2022-10-12T22:48:42;11.57;;;8.37;;
13687;SDS011;6916;51.504;7.416;2022-10-12T22:54:05;14.87;;;8.27;;
13687;SDS011;6916;51.504;7.416;2022-10-12T22:59:28;14.23;;;8.20;;
13687;SDS011;6916;51.504;7.416;2022-10-12T23:04:50;11.83;;;8.17;;
13687;SDS011;6916;51.504;7.416;2022-10-12T23:10:12;15.37;;;7.93;;
13687;SDS011;6916;51.504;7.416;2022-10-12T23:15:34;12.30;;;8.50;;
13687;SDS011;6916;51.504;7.416;2022-10-12T23:20:56;11.87;;;8.60;;
13687;SDS011;6916;51.504;7.416;2022-10-12T23:26:19;15.93;;;8.67;;
13687;SDS011;6916;51.504;7.416;2022-10-12T23:31:42;13.00;;;8.30;;
13687;SDS011;6916;51.504;7.416;2022-10-12T23:37:04;13.47;;;9.00;;
13687;SDS011;6916;51.504;7.416;2022-10-12T23:42:26;16.67;;;8.93;;
13687;SDS011;6916;51.504;7.416;2022-10-12T23:47:48;15.70;;;8.90;;
13687;SDS011;6916;51.504;7.416;2022-10-12T23:53:12;15.10;;;8.97;;
13687;SDS011;6916;51.504;7.416;2022-10-12T23:58:35;13.63;;;9.10;;
